createdAt,value
2022-10-13T00:00:14.855Z,10.20
2022-10-13T00:02:42.526Z,10.10
2022-10-13T00:05:10.560Z,10.10
2022-10-13T00:07:38.323Z,10.20
2022-10-13T00:10:07.985Z,10.10
2022-10-13T00:12:35.864Z,10.20
2022-10-13T00:15:03.591Z,10.30
2022-10-13T00:17:31.247Z,10.30
2022-10-13T00:19:59.095Z,10.40
2022-10-13T00:22:28.796Z,10.30
2022-10-13T00:24:56.681Z,10.20
2022-10-13T00:27:25.710Z,10.30
2022-10-13T00:29:53.396Z,10.40
2022-10-13T00:32:21.359Z,10.30
2022-10-13T00:34:49.277Z,10.40
2022-10-13T00:37:16.993Z,10.30
2022-10-13T00:39:46.062Z,10.40
2022-10-13T00:42:14.216Z,10.30
2022-10-13T00:45:00.951Z,10.30
2022-10-13T00:47:32.153Z,10.30
2022-10-13T00:50:01.091Z,10.30
2022-10-13T00:52:29.141Z,10.40
2022-10-13T00:54:57.521Z,10.40
2022-10-13T00:57:27.243Z,10.50
2022-10-13T00:59:55.023Z,10.50
2022-10-13T01:02:23.470Z,10.50
2022-10-13T01:04:52.607Z,10.50
2022-10-13T01:07:20.623Z,10.40
2022-10-13T01:09:48.325Z,10.40
2022-10-13T01:12:23.281Z,10.40
2022-10-13T01:14:54.068Z,10.40
2022-10-13T01:17:27.296Z,10.50
2022-10-13T01:20:10.665Z,10.40
2022-10-13T01:22:48.675Z,10.50
2022-10-13T01:25:25.632Z,10.50
2022-10-13T01:28:05.354Z,10.60
2022-10-13T01:30:38.843Z,10.60
2022-10-13T01:33:14.950Z,10.60
2022-10-13T01:35:49.488Z,10.60
2022-10-13T01:38:24.552Z,10.60
2022-10-13T01:40:57.170Z,10.50
2022-10-13T01:43:26.188Z,10.60
2022-10-13T01:45:57.929Z,10.60
2022-10-13T01:48:26.428Z,10.60
2022-10-13T01:50:55.094Z,10.70
2022-10-13T01:53:24.095Z,10.70
2022-10-13T01:55:52.699Z,10.70
2022-10-13T01:58:22.172Z,10.60
2022-10-13T02:00:55.946Z,10.60
2022-10-13T02:03:33.871Z,10.50
2022-10-13T02:06:06.219Z,10.60
2022-10-13T02:08:38.541Z,10.60
2022-10-13T02:11:11.770Z,10.60
2022-10-13T02:13:42.511Z,10.70
2022-10-13T02:16:10.737Z,10.60
2022-10-13T02:18:39.762Z,10.60
2022-10-13T02:21:07.446Z,10.60
2022-10-13T02:23:35.275Z,10.50
2022-10-13T02:26:03.377Z,10.50
2022-10-13T02:28:31.158Z,10.50
2022-10-13T02:30:58.880Z,10.60
2022-10-13T02:33:26.579Z,10.50
2022-10-13T02:35:55.620Z,10.40
2022-10-13T02:38:23.316Z,10.40
2022-10-13T02:40:50.992Z,10.40
2022-10-13T02:43:18.679Z,10.30
2022-10-13T02:45:46.357Z,10.30
2022-10-13T02:48:14.040Z,10.50
2022-10-13T02:50:41.774Z,10.50
2022-10-13T02:53:10.842Z,10.30
2022-10-13T02:55:38.501Z,10.50
2022-10-13T02:58:06.232Z,10.50
2022-10-13T03:00:34.077Z,10.40
2022-10-13T03:03:01.891Z,10.60
2022-10-13T03:05:29.583Z,10.50
2022-10-13T03:07:57.302Z,10.50
2022-10-13T03:10:26.949Z,10.50
2022-10-13T03:12:55.206Z,10.50
2022-10-13T03:15:23.023Z,10.60
2022-10-13T03:17:50.771Z,10.60
2022-10-13T03:20:18.572Z,10.50
2022-10-13T03:22:49.690Z,10.50
2022-10-13T03:25:17.750Z,10.60
2022-10-13T03:27:46.785Z,10.60
2022-10-13T03:30:14.604Z,10.60
2022-10-13T03:32:42.322Z,10.50
2022-10-13T03:35:10.069Z,10.50
2022-10-13T03:37:37.797Z,10.50
2022-10-13T03:40:06.511Z,10.50
2022-10-13T03:42:36.291Z,10.60
2022-10-13T03:45:05.859Z,10.60
2022-10-13T03:47:35.860Z,10.60
2022-10-13T03:50:04.424Z,10.60
2022-10-13T03:52:32.127Z,10.60
2022-10-13T03:54:59.751Z,10.50
2022-10-13T03:57:27.461Z,10.60
2022-10-13T03:59:56.167Z,10.60
2022-10-13T04:02:25.248Z,10.50
2022-10-13T04:04:52.995Z,10.50
2022-10-13T04:07:20.924Z,10.40
2022-10-13T04:09:48.633Z,10.40
2022-10-13T04:12:20.660Z,10.30
2022-10-13T04:14:48.980Z,10.20
2022-10-13T04:17:16.615Z,10.30
2022-10-13T04:19:45.801Z,10.30
2022-10-13T04:22:13.466Z,10.30
2022-10-13T04:24:41.240Z,10.40
2022-10-13T04:27:08.902Z,10.20
2022-10-13T04:29:37.578Z,10.20
2022-10-13T04:32:05.387Z,10.30
2022-10-13T04:34:33.059Z,10.30
2022-10-13T04:37:02.173Z,10.30
2022-10-13T04:39:29.852Z,10.30
2022-10-13T04:41:57.507Z,10.20
2022-10-13T04:44:25.228Z,10.20
2022-10-13T04:46:52.872Z,10.30
2022-10-13T04:49:20.652Z,10.30
2022-10-13T04:51:48.398Z,10.20
2022-10-13T04:54:17.559Z,10.20
2022-10-13T04:56:45.467Z,10.10
2022-10-13T04:59:13.218Z,10.10
2022-10-13T05:01:41.023Z,10.10
2022-10-13T05:04:09.579Z,10.10
2022-10-13T05:06:53.354Z,10.20
2022-10-13T05:09:29.601Z,10.10
2022-10-13T05:11:57.353Z,10.00
2022-10-13T05:14:25.292Z,9.90
2022-10-13T05:16:52.958Z,9.80
2022-10-13T05:19:20.679Z,9.80
2022-10-13T05:21:48.449Z,9.90
2022-10-13T05:24:16.358Z,9.80
2022-10-13T05:26:45.405Z,9.80
2022-10-13T05:29:13.077Z,9.80
2022-10-13T05:31:41.047Z,9.80
2022-10-13T05:34:08.870Z,9.80
2022-10-13T05:36:36.583Z,9.70
2022-10-13T05:39:05.746Z,9.70
2022-10-13T05:41:33.478Z,9.90
2022-10-13T05:44:03.350Z,10.00
2022-10-13T05:46:31.014Z,10.10
2022-10-13T05:48:58.779Z,10.10
2022-10-13T05:51:27.955Z,10.00
2022-10-13T05:54:00.034Z,10.10
2022-10-13T05:56:31.192Z,9.80
2022-10-13T05:59:00.847Z,9.80
2022-10-13T06:01:32.346Z,9.70
2022-10-13T06:04:01.183Z,9.70
2022-10-13T06:06:31.425Z,9.80
2022-10-13T06:09:02.276Z,9.90
2022-10-13T06:11:29.982Z,10.00
2022-10-13T06:13:57.742Z,10.00
2022-10-13T06:16:25.567Z,9.90
2022-10-13T06:18:54.636Z,9.80
2022-10-13T06:21:22.351Z,9.70
2022-10-13T06:23:50.050Z,9.80
2022-10-13T06:26:17.931Z,9.80
2022-10-13T06:28:50.041Z,9.80
2022-10-13T06:31:18.800Z,9.90
2022-10-13T06:33:46.606Z,10.00
2022-10-13T06:36:15.614Z,10.10
2022-10-13T06:38:43.316Z,10.10
2022-10-13T06:41:11.112Z,10.00
2022-10-13T06:43:40.367Z,10.00
2022-10-13T06:46:10.366Z,10.10
2022-10-13T06:48:38.220Z,10.10
2022-10-13T06:51:06.998Z,10.20
2022-10-13T06:53:36.119Z,10.20
2022-10-13T06:56:05.074Z,10.10
2022-10-13T06:58:33.106Z,10.20
2022-10-13T07:01:00.838Z,10.20
2022-10-13T07:03:28.669Z,10.30
2022-10-13T07:06:00.716Z,10.30
2022-10-13T07:08:28.559Z,10.40
2022-10-13T07:10:57.738Z,10.50
2022-10-13T07:13:25.637Z,10.50
2022-10-13T07:15:53.348Z,10.50
2022-10-13T07:18:20.996Z,10.60
2022-10-13T07:20:48.690Z,10.60
2022-10-13T07:23:16.389Z,10.60
2022-10-13T07:25:44.042Z,10.60
2022-10-13T07:28:13.072Z,10.60
2022-10-13T07:30:40.773Z,10.70
2022-10-13T07:33:08.549Z,10.70
2022-10-13T07:35:38.973Z,10.70
2022-10-13T07:38:06.832Z,10.80
2022-10-13T07:40:34.560Z,10.90
2022-10-13T07:43:02.662Z,10.90
2022-10-13T07:45:31.695Z,11.00
2022-10-13T07:47:59.363Z,11.00
2022-10-13T07:50:27.028Z,11.00
2022-10-13T07:52:54.712Z,11.10
2022-10-13T07:55:22.366Z,11.10
2022-10-13T07:57:50.085Z,11.10
2022-10-13T08:00:18.052Z,11.10
2022-10-13T08:02:50.154Z,11.20
2022-10-13T08:05:17.890Z,11.20
2022-10-13T08:07:45.600Z,11.30
2022-10-13T08:10:13.697Z,11.30
2022-10-13T08:12:41.361Z,11.40
2022-10-13T08:15:09.782Z,11.40
2022-10-13T08:17:37.451Z,11.40
2022-10-13T08:20:07.332Z,11.40
2022-10-13T08:22:35.236Z,11.50
2022-10-13T08:25:03.122Z,11.50
2022-10-13T08:27:49.862Z,11.60
2022-10-13T08:30:18.680Z,11.60
2022-10-13T08:32:46.522Z,11.70
2022-10-13T08:35:15.954Z,11.80
2022-10-13T08:37:43.793Z,11.90
2022-10-13T08:40:23.028Z,12.00
2022-10-13T08:42:51.045Z,12.00
2022-10-13T08:45:41.392Z,12.10
2022-10-13T08:48:11.766Z,12.20
2022-10-13T08:50:43.004Z,12.20
2022-10-13T08:53:13.682Z,12.20
2022-10-13T08:55:42.586Z,12.30
2022-10-13T08:58:13.296Z,12.40
2022-10-13T09:00:40.995Z,12.40
2022-10-13T09:03:17.651Z,12.40
2022-10-13T09:05:53.831Z,12.50
2022-10-13T09:08:23.756Z,12.50
2022-10-13T09:10:52.127Z,12.60
2022-10-13T09:13:20.329Z,12.60
2022-10-13T09:15:50.252Z,12.70
2022-10-13T09:18:18.135Z,12.80
2022-10-13T09:20:47.346Z,12.90
2022-10-13T09:23:19.977Z,13.00
2022-10-13T09:25:49.252Z,13.00
2022-10-13T09:28:19.323Z,13.10
2022-10-13T09:30:47.949Z,13.30
2022-10-13T09:33:17.816Z,13.30
2022-10-13T09:35:47.546Z,13.40
2022-10-13T09:38:16.450Z,13.50
2022-10-13T09:40:45.039Z,13.50
2022-10-13T09:43:28.660Z,13.60
2022-10-13T09:45:57.095Z,13.70
2022-10-13T09:48:26.321Z,13.80
2022-10-13T09:50:56.296Z,13.80
2022-10-13T09:53:28.684Z,13.90
2022-10-13T09:56:09.902Z,14.00
2022-10-13T09:58:39.771Z,14.10
2022-10-13T10:01:08.025Z,14.20
2022-10-13T10:03:38.085Z,14.20
2022-10-13T10:09:02.031Z,14.40
2022-10-13T10:11:33.505Z,14.50
2022-10-13T10:14:01.549Z,14.70
2022-10-13T10:16:32.419Z,14.80
2022-10-13T10:19:03.938Z,14.80
2022-10-13T10:21:36.140Z,15.00
2022-10-13T10:24:07.188Z,15.10
2022-10-13T10:26:41.236Z,15.10
2022-10-13T10:29:20.118Z,15.20
2022-10-13T10:31:54.595Z,15.30
2022-10-13T10:34:31.969Z,15.40
2022-10-13T10:37:05.714Z,15.50
2022-10-13T10:39:37.178Z,15.60
2022-10-13T10:42:08.960Z,15.70
2022-10-13T10:44:37.892Z,15.80
2022-10-13T10:47:07.805Z,16.00
2022-10-13T10:49:36.398Z,16.00
2022-10-13T10:52:07.912Z,16.00
2022-10-13T10:54:48.165Z,16.10
2022-10-13T10:57:20.679Z,16.20
2022-10-13T10:59:52.283Z,16.20
2022-10-13T11:02:31.274Z,16.30
2022-10-13T11:05:05.227Z,16.50
2022-10-13T11:07:57.493Z,16.50
2022-10-13T11:10:26.853Z,16.60
2022-10-13T11:13:19.290Z,16.60
2022-10-13T11:15:47.502Z,16.70
2022-10-13T11:18:33.776Z,16.70
2022-10-13T11:21:01.546Z,16.80
2022-10-13T11:23:34.628Z,16.90
2022-10-13T11:26:20.023Z,16.90
2022-10-13T11:28:48.737Z,17.00
2022-10-13T11:31:29.751Z,17.00
2022-10-13T11:34:01.214Z,17.20
2022-10-13T11:36:47.845Z,17.20
2022-10-13T11:39:34.316Z,17.10
2022-10-13T11:42:08.572Z,17.20
2022-10-13T11:44:38.968Z,17.30
2022-10-13T11:47:12.893Z,17.30
2022-10-13T11:49:49.265Z,17.40
2022-10-13T11:52:26.603Z,17.50
2022-10-13T11:54:55.996Z,17.50
2022-10-13T11:57:26.423Z,17.60
2022-10-13T11:59:56.801Z,17.60
2022-10-13T12:02:25.488Z,17.60
2022-10-13T12:05:01.087Z,17.70
2022-10-13T12:07:35.757Z,17.70
2022-10-13T12:10:05.174Z,17.70
2022-10-13T12:12:34.840Z,17.70
2022-10-13T12:15:06.106Z,17.70
2022-10-13T12:17:38.764Z,17.70
2022-10-13T12:20:20.540Z,17.60
2022-10-13T12:22:48.435Z,17.70
2022-10-13T12:25:17.684Z,17.80
2022-10-13T12:27:48.095Z,17.80
2022-10-13T12:30:23.382Z,17.80
2022-10-13T12:32:51.543Z,17.80
2022-10-13T12:35:19.952Z,17.80
2022-10-13T12:37:47.966Z,17.70
2022-10-13T12:40:16.274Z,17.70
2022-10-13T12:42:44.263Z,17.80
2022-10-13T12:45:16.499Z,17.80
2022-10-13T12:47:48.212Z,17.80
2022-10-13T12:50:22.871Z,17.90
2022-10-13T12:52:51.214Z,17.80
2022-10-13T12:55:20.053Z,17.80
2022-10-13T12:57:48.791Z,17.90
2022-10-13T13:00:23.513Z,17.90
2022-10-13T13:02:52.175Z,17.90
2022-10-13T13:05:33.082Z,17.90
2022-10-13T13:08:01.287Z,18.00
2022-10-13T13:10:29.343Z,18.00
2022-10-13T13:12:57.125Z,18.10
2022-10-13T13:15:33.837Z,18.10
2022-10-13T13:18:20.283Z,18.10
2022-10-13T13:20:47.993Z,18.00
2022-10-13T13:23:18.807Z,18.00
2022-10-13T13:25:46.749Z,18.00
2022-10-13T13:28:15.865Z,18.00
2022-10-13T13:30:45.283Z,18.00
2022-10-13T13:33:13.201Z,18.00
2022-10-13T13:35:40.877Z,18.00
2022-10-13T13:38:08.578Z,18.10
2022-10-13T13:40:36.269Z,18.10
2022-10-13T13:43:04.188Z,18.20
2022-10-13T13:45:31.876Z,18.20
2022-10-13T13:48:01.134Z,18.20
2022-10-13T13:50:32.209Z,18.20
2022-10-13T13:53:00.187Z,18.40
2022-10-13T13:55:29.732Z,18.50
2022-10-13T13:57:57.632Z,18.60
2022-10-13T14:00:25.416Z,18.50
2022-10-13T14:02:53.159Z,18.50
2022-10-13T14:05:22.186Z,18.50
2022-10-13T14:07:50.518Z,18.50
2022-10-13T14:10:18.299Z,18.50
2022-10-13T14:12:46.150Z,18.50
2022-10-13T14:15:13.831Z,18.40
2022-10-13T14:17:41.508Z,18.40
2022-10-13T14:20:09.475Z,18.50
2022-10-13T14:22:39.550Z,18.50
2022-10-13T14:25:07.928Z,18.50
2022-10-13T14:27:36.961Z,18.40
2022-10-13T14:30:05.070Z,18.40
2022-10-13T14:32:33.054Z,18.40
2022-10-13T14:35:00.882Z,18.40
2022-10-13T14:37:33.366Z,18.40
2022-10-13T14:40:02.935Z,18.40
2022-10-13T14:42:30.693Z,18.30
2022-10-13T14:44:58.434Z,18.30
2022-10-13T14:47:26.139Z,18.30
2022-10-13T14:49:54.171Z,18.30
2022-10-13T14:52:31.460Z,18.30
2022-10-13T14:54:59.193Z,18.40
2022-10-13T14:57:28.415Z,18.50
2022-10-13T15:00:01.505Z,18.60
2022-10-13T15:02:29.685Z,18.70
2022-10-13T15:04:57.874Z,18.70
2022-10-13T15:07:25.667Z,18.70
2022-10-13T15:10:04.908Z,18.80
2022-10-13T15:12:34.426Z,18.80
2022-10-13T15:15:02.226Z,18.80
2022-10-13T15:17:30.823Z,18.70
2022-10-13T15:19:58.598Z,18.80
2022-10-13T15:22:26.477Z,18.70
2022-10-13T15:24:54.130Z,18.70
2022-10-13T15:27:21.974Z,18.60
2022-10-13T15:29:50.974Z,18.50
2022-10-13T15:32:20.439Z,18.40
2022-10-13T15:34:48.432Z,18.30
2022-10-13T15:37:16.147Z,18.20
2022-10-13T15:39:43.841Z,18.20
2022-10-13T15:42:12.258Z,18.20
2022-10-13T15:45:04.967Z,18.10
2022-10-13T15:47:28.997Z,18.00
2022-10-13T15:49:58.502Z,18.00
2022-10-13T15:52:33.715Z,17.90
2022-10-13T15:55:02.550Z,17.80
2022-10-13T15:57:33.012Z,17.80
2022-10-13T16:00:00.695Z,17.80
2022-10-13T16:02:29.683Z,17.70
2022-10-13T16:04:58.186Z,17.60
2022-10-13T16:07:25.893Z,17.40
2022-10-13T16:09:53.637Z,17.30
2022-10-13T16:12:21.720Z,16.90
2022-10-13T16:14:49.767Z,16.80
2022-10-13T16:17:17.458Z,16.80
2022-10-13T16:19:46.843Z,16.90
2022-10-13T16:22:14.594Z,16.70
2022-10-13T16:24:42.326Z,16.80
2022-10-13T16:27:10.062Z,16.90
2022-10-13T16:29:37.765Z,16.90
2022-10-13T16:32:05.584Z,16.80
2022-10-13T16:34:33.294Z,16.70
2022-10-13T16:37:02.346Z,16.70
2022-10-13T16:39:30.087Z,16.80
2022-10-13T16:41:59.046Z,16.70
2022-10-13T16:44:26.746Z,16.50
2022-10-13T16:46:56.782Z,16.30
2022-10-13T16:49:24.568Z,16.40
2022-10-13T16:51:52.270Z,16.20
2022-10-13T16:54:21.298Z,16.00
2022-10-13T16:56:51.369Z,15.80
2022-10-13T16:59:19.046Z,15.70
2022-10-13T17:01:47.291Z,15.60
2022-10-13T17:04:18.515Z,15.50
2022-10-13T17:06:49.642Z,15.40
2022-10-13T17:09:17.374Z,15.40
2022-10-13T17:11:46.927Z,15.40
2022-10-13T17:14:14.891Z,15.30
2022-10-13T17:16:42.739Z,15.10
2022-10-13T17:19:10.466Z,15.00
2022-10-13T17:21:38.205Z,15.00
2022-10-13T17:24:06.059Z,15.00
2022-10-13T17:26:33.806Z,15.00
2022-10-13T17:29:03.839Z,15.00
2022-10-13T17:31:32.129Z,15.10
2022-10-13T17:34:00.438Z,14.90
2022-10-13T17:36:29.063Z,14.80
2022-10-13T17:38:57.557Z,14.70
2022-10-13T17:41:28.448Z,14.60
2022-10-13T17:43:56.150Z,14.70
2022-10-13T17:46:41.581Z,14.40
2022-10-13T17:49:11.504Z,14.40
2022-10-13T17:51:39.394Z,14.30
2022-10-13T17:54:11.434Z,14.40
2022-10-13T17:56:43.340Z,14.40
2022-10-13T17:59:11.022Z,14.30
2022-10-13T18:01:41.921Z,14.50
2022-10-13T18:04:11.966Z,14.30
2022-10-13T18:06:40.875Z,14.40
2022-10-13T18:09:09.640Z,14.30
2022-10-13T18:11:37.971Z,14.30
2022-10-13T18:14:05.965Z,14.10
2022-10-13T18:16:35.162Z,14.30
2022-10-13T18:19:18.016Z,14.30
2022-10-13T18:21:46.283Z,14.20
2022-10-13T18:24:16.852Z,14.20
2022-10-13T18:26:44.581Z,14.20
2022-10-13T18:29:13.084Z,14.30
2022-10-13T18:31:42.185Z,14.00
2022-10-13T18:34:12.326Z,14.00
2022-10-13T18:36:41.025Z,14.00
2022-10-13T18:39:09.428Z,13.90
2022-10-13T18:41:37.414Z,13.70
2022-10-13T18:44:05.543Z,13.80
2022-10-13T18:46:33.617Z,13.60
2022-10-13T18:49:01.388Z,13.50
2022-10-13T18:51:35.583Z,13.30
2022-10-13T18:54:04.598Z,13.20
2022-10-13T18:56:36.875Z,13.10
2022-10-13T18:59:06.109Z,13.10
2022-10-13T19:01:35.288Z,13.10
2022-10-13T19:04:03.109Z,13.20
2022-10-13T19:06:32.752Z,13.00
2022-10-13T19:09:01.575Z,13.00
2022-10-13T19:11:30.011Z,13.00
2022-10-13T19:13:58.457Z,12.90
2022-10-13T19:16:27.304Z,13.00
2022-10-13T19:18:55.419Z,13.00
2022-10-13T19:21:24.002Z,12.90
2022-10-13T19:23:53.380Z,12.80
2022-10-13T19:26:23.717Z,12.70
2022-10-13T19:28:54.540Z,12.70
2022-10-13T19:31:23.128Z,12.60
2022-10-13T19:33:53.256Z,12.60
2022-10-13T19:36:21.970Z,12.50
2022-10-13T19:38:50.207Z,12.50
2022-10-13T19:41:19.954Z,12.50
2022-10-13T19:43:47.751Z,12.70
2022-10-13T19:46:15.631Z,12.70
2022-10-13T19:48:43.630Z,12.50
2022-10-13T19:51:11.496Z,12.40
2022-10-13T19:53:39.552Z,12.40
2022-10-13T19:56:07.816Z,12.30
2022-10-13T19:58:39.171Z,12.40
2022-10-13T20:01:08.236Z,12.30
2022-10-13T20:03:37.323Z,12.20
2022-10-13T20:06:05.432Z,12.30
2022-10-13T20:08:33.170Z,12.30
2022-10-13T20:11:06.371Z,12.40
2022-10-13T20:13:34.580Z,12.40
2022-10-13T20:16:07.246Z,12.20
2022-10-13T20:18:35.418Z,12.20
2022-10-13T20:21:04.372Z,12.20
2022-10-13T20:23:32.839Z,12.10
2022-10-13T20:26:02.542Z,12.00
2022-10-13T20:28:30.279Z,12.00
2022-10-13T20:30:58.394Z,12.10
2022-10-13T20:33:27.967Z,11.90
2022-10-13T20:35:58.920Z,12.00
2022-10-13T20:38:26.732Z,11.90
2022-10-13T20:40:54.401Z,11.90
2022-10-13T20:43:25.638Z,11.90
2022-10-13T20:45:59.658Z,11.90
2022-10-13T20:48:51.098Z,12.00
2022-10-13T20:51:19.951Z,12.00
2022-10-13T20:53:48.446Z,11.90
2022-10-13T20:56:17.478Z,12.00
2022-10-13T20:58:45.766Z,12.10
2022-10-13T21:01:13.898Z,12.00
2022-10-13T21:03:43.178Z,12.10
2022-10-13T21:06:11.605Z,12.00
2022-10-13T21:08:39.583Z,12.10
2022-10-13T21:11:08.367Z,12.10
2022-10-13T21:13:36.489Z,12.10
2022-10-13T21:16:08.297Z,12.00
2022-10-13T21:18:36.647Z,11.90
2022-10-13T21:21:07.148Z,11.80
2022-10-13T21:23:34.931Z,11.90
2022-10-13T21:26:05.052Z,11.90
2022-10-13T21:28:34.425Z,12.00
2022-10-13T21:31:03.389Z,12.00
2022-10-13T21:33:33.436Z,11.90
2022-10-13T21:36:07.871Z,12.00
2022-10-13T21:38:35.569Z,12.00
2022-10-13T21:41:04.946Z,12.00
2022-10-13T21:43:32.665Z,12.00
2022-10-13T21:46:08.460Z,11.90
2022-10-13T21:48:36.376Z,11.90
2022-10-13T21:51:12.543Z,11.90
2022-10-13T21:53:40.344Z,11.80
2022-10-13T21:56:11.123Z,11.80
2022-10-13T21:58:39.028Z,11.80
2022-10-13T22:01:07.052Z,11.80
2022-10-13T22:03:35.020Z,11.80
2022-10-13T22:06:06.715Z,11.80
2022-10-13T22:08:38.972Z,11.90
2022-10-13T22:11:09.146Z,12.00
2022-10-13T22:13:36.885Z,11.90
2022-10-13T22:16:04.990Z,11.90
2022-10-13T22:18:32.689Z,11.90
2022-10-13T22:21:01.248Z,12.00
2022-10-13T22:23:28.947Z,12.00
2022-10-13T22:25:58.200Z,12.00
2022-10-13T22:28:32.324Z,11.90
2022-10-13T22:31:04.527Z,11.80
2022-10-13T22:33:32.552Z,11.70
2022-10-13T22:36:00.264Z,11.70
2022-10-13T22:38:27.991Z,11.60
2022-10-13T22:40:57.998Z,11.50
2022-10-13T22:43:27.023Z,11.50
2022-10-13T22:45:57.380Z,11.60
2022-10-13T22:48:25.254Z,11.50
2022-10-13T22:50:53.458Z,11.50
2022-10-13T22:53:21.433Z,11.60
2022-10-13T22:55:49.179Z,11.60
2022-10-13T22:58:16.853Z,11.70
2022-10-13T23:00:45.946Z,11.70
2022-10-13T23:03:14.925Z,11.80
2022-10-13T23:05:43.385Z,11.70
2022-10-13T23:08:11.147Z,11.60
2022-10-13T23:10:39.259Z,11.70
2022-10-13T23:13:07.206Z,11.50
2022-10-13T23:15:34.883Z,11.50
2022-10-13T23:18:03.906Z,11.60
2022-10-13T23:20:31.627Z,11.60
2022-10-13T23:22:59.321Z,11.40
2022-10-13T23:25:26.997Z,11.60
2022-10-13T23:27:56.677Z,11.80
2022-10-13T23:30:24.326Z,11.70
2022-10-13T23:32:52.023Z,11.60
2022-10-13T23:35:21.103Z,11.60
2022-10-13T23:37:48.836Z,11.60
2022-10-13T23:40:16.548Z,11.70
2022-10-13T23:42:44.311Z,11.70
2022-10-13T23:45:12.338Z,11.70
2022-10-13T23:47:40.007Z,11.70
2022-10-13T23:50:07.885Z,11.70
2022-10-13T23:52:37.024Z,11.70
2022-10-13T23:55:05.000Z,11.70
2022-10-13T23:57:32.693Z,11.70
